createdAt,value
2022-09-06T00:02:27.087Z,8.97
2022-09-06T00:05:19.478Z,11.07
2022-09-06T00:08:12.161Z,8.60
2022-09-06T00:11:05.420Z,11.30
2022-09-06T00:13:57.370Z,9.90
2022-09-06T00:16:49.605Z,8.50
2022-09-06T00:19:42.751Z,9.63
2022-09-06T00:25:26.416Z,9.60
2022-09-06T00:28:20.017Z,9.67
2022-09-06T00:31:17.563Z,11.00
2022-09-06T00:34:10.123Z,8.57
2022-09-06T00:37:02.734Z,10.13
2022-09-06T00:39:55.132Z,10.13
2022-09-06T00:42:47.408Z,11.53
2022-09-06T00:45:41.002Z,10.95
2022-09-06T00:48:33.526Z,10.43
2022-09-06T00:51:28.541Z,9.67
2022-09-06T00:54:20.767Z,9.57
2022-09-06T00:57:14.913Z,9.17
2022-09-06T01:00:10.353Z,11.23
2022-09-06T01:03:03.615Z,9.23
2022-09-06T01:06:06.097Z,9.13
2022-09-06T01:09:08.950Z,9.10
2022-09-06T01:12:12.688Z,10.13
2022-09-06T01:15:16.120Z,10.30
2022-09-06T01:18:22.352Z,10.00
2022-09-06T01:21:35.907Z,11.30
2022-09-06T01:24:59.872Z,10.90
2022-09-06T01:28:18.211Z,9.97
2022-09-06T01:31:22.717Z,8.63
2022-09-06T01:34:25.609Z,9.43
2022-09-06T01:37:21.764Z,9.57
2022-09-06T01:40:14.262Z,11.27
2022-09-06T01:43:10.755Z,10.27
2022-09-06T01:46:13.181Z,12.30
2022-09-06T01:49:25.624Z,8.27
2022-09-06T01:52:23.794Z,10.18
2022-09-06T01:55:25.881Z,9.50
2022-09-06T01:58:35.924Z,10.93
2022-09-06T02:01:35.817Z,8.33
2022-09-06T02:04:32.672Z,9.67
2022-09-06T02:07:27.771Z,10.30
2022-09-06T02:10:27.411Z,10.30
2022-09-06T02:13:24.751Z,8.63
2022-09-06T02:16:19.719Z,9.20
2022-09-06T02:19:16.338Z,7.27
2022-09-06T02:22:13.163Z,9.40
2022-09-06T02:25:13.129Z,10.33
2022-09-06T02:28:09.111Z,22.90
2022-09-06T02:31:04.066Z,27.97
2022-09-06T02:33:57.875Z,24.10
2022-09-06T02:36:50.790Z,28.90
2022-09-06T02:39:44.085Z,14.90
2022-09-06T02:42:36.703Z,10.50
2022-09-06T02:45:29.868Z,9.20
2022-09-06T02:48:22.975Z,9.87
2022-09-06T02:51:15.572Z,9.20
2022-09-06T02:54:09.039Z,9.73
2022-09-06T02:57:01.684Z,9.23
2022-09-06T02:59:54.126Z,9.47
2022-09-06T03:02:46.767Z,9.27
2022-09-06T03:08:33.771Z,11.40
2022-09-06T03:11:25.626Z,8.27
2022-09-06T03:14:19.635Z,10.87
2022-09-06T03:17:11.233Z,9.73
2022-09-06T03:20:04.231Z,8.65
2022-09-06T03:22:56.615Z,9.33
2022-09-06T03:25:49.955Z,10.13
2022-09-06T03:28:43.303Z,8.83
2022-09-06T03:31:35.621Z,9.97
2022-09-06T03:34:22.097Z,10.53
2022-09-06T03:37:14.713Z,10.57
2022-09-06T03:40:09.833Z,9.83
2022-09-06T03:43:02.731Z,10.87
2022-09-06T03:45:57.226Z,9.43
2022-09-06T03:48:50.276Z,11.97
2022-09-06T03:51:42.083Z,12.73
2022-09-06T03:54:34.144Z,9.73
2022-09-06T03:57:26.523Z,7.57
2022-09-06T04:00:21.020Z,9.55
2022-09-06T04:03:13.573Z,10.77
2022-09-06T04:06:06.287Z,8.57
2022-09-06T04:08:58.869Z,8.77
2022-09-06T04:11:50.900Z,10.97
2022-09-06T04:14:43.541Z,9.70
2022-09-06T04:17:35.546Z,8.88
2022-09-06T04:20:28.318Z,8.60
2022-09-06T04:23:21.242Z,9.47
2022-09-06T04:26:13.737Z,9.03
2022-09-06T04:29:06.048Z,9.68
2022-09-06T04:31:58.684Z,8.70
2022-09-06T04:34:51.929Z,10.53
2022-09-06T04:37:45.212Z,10.23
2022-09-06T04:40:37.673Z,10.60
2022-09-06T04:43:30.109Z,9.13
2022-09-06T04:46:25.193Z,9.87
2022-09-06T04:49:17.646Z,10.57
2022-09-06T04:55:00.294Z,10.57
2022-09-06T04:57:53.418Z,10.20
2022-09-06T05:00:45.542Z,9.63
2022-09-06T05:03:37.508Z,9.17
2022-09-06T05:06:30.458Z,11.80
2022-09-06T05:09:22.965Z,11.57
2022-09-06T05:12:16.985Z,9.30
2022-09-06T05:15:13.769Z,12.60
2022-09-06T05:18:12.852Z,12.57
2022-09-06T05:21:07.842Z,9.20
2022-09-06T05:26:50.966Z,10.50
2022-09-06T05:29:43.202Z,9.57
2022-09-06T05:35:26.565Z,11.43
2022-09-06T05:38:19.212Z,10.33
2022-09-06T05:41:11.220Z,9.70
2022-09-06T05:44:03.943Z,10.30
2022-09-06T05:46:56.211Z,10.27
2022-09-06T05:49:49.618Z,12.83
2022-09-06T05:52:41.739Z,11.18
2022-09-06T05:55:33.606Z,9.53
2022-09-06T05:58:25.648Z,10.40
2022-09-06T06:01:22.725Z,12.30
2022-09-06T06:04:15.229Z,13.10
2022-09-06T06:09:58.923Z,14.33
2022-09-06T06:12:51.301Z,9.77
2022-09-06T06:15:44.928Z,12.83
2022-09-06T06:18:39.563Z,10.53
2022-09-06T06:21:33.167Z,10.80
2022-09-06T06:24:26.759Z,13.27
2022-09-06T06:27:18.479Z,12.20
2022-09-06T06:30:18.202Z,11.47
2022-09-06T06:33:12.139Z,10.55
2022-09-06T06:36:07.082Z,12.30
2022-09-06T06:39:00.026Z,11.27
2022-09-06T06:41:52.604Z,11.60
2022-09-06T06:44:56.378Z,10.27
2022-09-06T06:47:53.420Z,11.27
2022-09-06T06:50:47.613Z,9.77
2022-09-06T06:53:40.485Z,12.20
2022-09-06T06:56:35.138Z,8.73
2022-09-06T06:59:28.152Z,8.83
2022-09-06T07:02:20.395Z,9.00
2022-09-06T07:08:25.598Z,10.27
2022-09-06T07:11:21.728Z,8.47
2022-09-06T07:14:16.870Z,8.83
2022-09-06T07:17:09.418Z,8.80
2022-09-06T07:20:16.925Z,9.13
2022-09-06T07:26:24.041Z,8.27
2022-09-06T07:29:17.752Z,8.33
2022-09-06T07:35:09.851Z,8.77
2022-09-06T07:38:04.951Z,9.40
2022-09-06T07:40:59.411Z,7.17
2022-09-06T07:43:54.589Z,9.53
2022-09-06T07:46:47.103Z,10.80
2022-09-06T07:49:40.299Z,8.53
2022-09-06T07:55:44.533Z,9.87
2022-09-06T08:01:34.459Z,8.43
2022-09-06T08:04:27.025Z,9.23
2022-09-06T08:13:22.253Z,10.10
2022-09-06T08:16:17.173Z,9.70
2022-09-06T08:19:12.468Z,11.47
2022-09-06T08:22:05.394Z,11.30
2022-09-06T08:24:58.291Z,9.60
2022-09-06T08:27:50.279Z,12.10
2022-09-06T08:30:42.924Z,9.27
2022-09-06T08:33:36.945Z,8.87
2022-09-06T08:36:29.832Z,8.97
2022-09-06T08:39:22.095Z,9.97
2022-09-06T08:42:15.744Z,9.30
2022-09-06T08:45:12.742Z,10.90
2022-09-06T08:48:05.454Z,9.07
2022-09-06T08:51:21.760Z,7.93
2022-09-06T08:54:20.503Z,12.53
2022-09-06T08:57:23.235Z,7.20
2022-09-06T09:00:16.695Z,8.77
2022-09-06T09:03:16.629Z,8.90
2022-09-06T09:06:11.449Z,12.73
2022-09-06T09:09:08.562Z,11.50
2022-09-06T09:12:02.825Z,8.03
2022-09-06T09:15:01.846Z,8.77
2022-09-06T09:17:55.406Z,8.73
2022-09-06T09:20:47.891Z,8.03
2022-09-06T09:23:40.490Z,10.07
2022-09-06T09:26:38.692Z,9.20
2022-09-06T09:29:35.659Z,7.87
2022-09-06T09:32:36.118Z,7.83
2022-09-06T09:35:34.518Z,7.57
2022-09-06T09:38:31.077Z,8.20
2022-09-06T09:41:33.285Z,9.43
2022-09-06T09:44:29.280Z,8.40
2022-09-06T09:47:29.266Z,8.53
2022-09-06T09:50:29.423Z,7.17
2022-09-06T09:53:24.351Z,8.10
2022-09-06T09:56:19.105Z,7.30
2022-09-06T09:59:27.935Z,7.07
2022-09-06T10:02:26.167Z,6.13
2022-09-06T10:05:23.434Z,6.67
2022-09-06T10:08:16.707Z,7.30
2022-09-06T10:11:12.784Z,7.40
2022-09-06T10:14:21.822Z,8.17
2022-09-06T10:17:22.807Z,8.33
2022-09-06T10:20:16.824Z,6.63
2022-09-06T10:23:17.596Z,6.77
2022-09-06T10:26:19.734Z,5.97
2022-09-06T10:29:12.242Z,8.60
2022-09-06T10:32:18.926Z,9.17
2022-09-06T10:35:22.188Z,7.07
2022-09-06T10:38:26.367Z,7.27
2022-09-06T10:41:41.718Z,7.20
2022-09-06T10:47:39.093Z,7.93
2022-09-06T10:50:40.343Z,6.27
2022-09-06T10:53:41.372Z,10.73
2022-09-06T10:56:41.561Z,8.93
2022-09-06T11:02:45.525Z,9.87
2022-09-06T11:05:42.663Z,6.87
2022-09-06T11:11:45.978Z,6.13
2022-09-06T11:14:40.162Z,10.47
2022-09-06T11:17:41.415Z,7.33
2022-09-06T11:20:38.442Z,8.70
2022-09-06T11:23:49.564Z,6.77
2022-09-06T11:26:47.001Z,8.65
2022-09-06T11:29:44.011Z,8.50
2022-09-06T11:32:43.489Z,7.83
2022-09-06T11:35:36.436Z,7.23
2022-09-06T11:38:30.412Z,7.27
2022-09-06T11:41:23.171Z,13.13
2022-09-06T11:44:35.365Z,9.10
2022-09-06T11:47:44.623Z,7.30
2022-09-06T11:51:06.864Z,8.70
2022-09-06T11:54:22.321Z,7.33
2022-09-06T11:57:23.366Z,8.80
2022-09-06T12:00:24.168Z,9.07
2022-09-06T12:04:05.981Z,8.80
2022-09-06T12:07:13.094Z,7.70
2022-09-06T12:10:51.051Z,8.77
2022-09-06T12:13:54.137Z,11.50
2022-09-06T12:17:29.437Z,7.70
2022-09-06T12:20:53.215Z,12.27
2022-09-06T12:23:45.810Z,7.50
2022-09-06T12:27:09.631Z,6.73
2022-09-06T12:30:04.574Z,7.50
2022-09-06T12:32:57.377Z,7.63
2022-09-06T12:35:56.835Z,7.77
2022-09-06T12:39:00.675Z,10.23
2022-09-06T12:41:57.236Z,8.50
2022-09-06T12:44:54.177Z,7.27
2022-09-06T12:47:46.767Z,6.50
2022-09-06T12:50:40.634Z,6.77
2022-09-06T12:53:32.328Z,10.00
2022-09-06T12:56:25.788Z,7.33
2022-09-06T12:59:20.755Z,6.67
2022-09-06T13:02:19.462Z,6.30
2022-09-06T13:05:13.747Z,6.77
2022-09-06T13:08:07.512Z,8.37
2022-09-06T13:11:01.045Z,7.40
2022-09-06T13:13:56.065Z,7.50
2022-09-06T13:16:50.803Z,7.33
2022-09-06T13:19:45.493Z,6.43
2022-09-06T13:22:50.876Z,8.47
2022-09-06T13:25:53.560Z,9.67
2022-09-06T13:28:45.458Z,7.03
2022-09-06T13:31:38.378Z,6.10
2022-09-06T13:34:32.948Z,6.70
2022-09-06T13:37:27.464Z,6.73
2022-09-06T13:41:07.009Z,8.67
2022-09-06T13:44:01.300Z,7.30
2022-09-06T13:46:57.060Z,8.10
2022-09-06T13:49:48.702Z,8.57
2022-09-06T13:52:40.700Z,7.80
2022-09-06T13:55:34.989Z,11.07
2022-09-06T13:58:26.907Z,9.20
2022-09-06T14:01:19.307Z,6.77
2022-09-06T14:04:16.571Z,7.27
2022-09-06T14:07:09.342Z,6.73
2022-09-06T14:10:01.383Z,7.60
2022-09-06T14:12:54.801Z,7.63
2022-09-06T14:15:47.218Z,7.10
2022-09-06T14:18:40.798Z,7.57
2022-09-06T14:21:34.982Z,9.17
2022-09-06T14:24:27.180Z,8.63
2022-09-06T14:27:20.943Z,6.07
2022-09-06T14:30:15.524Z,7.60
2022-09-06T14:33:08.042Z,7.47
2022-09-06T14:36:00.546Z,7.73
2022-09-06T14:38:52.925Z,7.53
2022-09-06T14:41:44.907Z,7.83
2022-09-06T14:44:38.212Z,7.40
2022-09-06T14:47:32.129Z,6.83
2022-09-06T14:50:24.148Z,6.20
2022-09-06T14:53:38.829Z,5.80
2022-09-06T14:56:30.728Z,7.20
2022-09-06T14:59:23.312Z,8.50
2022-09-06T15:02:15.811Z,6.73
2022-09-06T15:05:09.219Z,7.13
2022-09-06T15:08:02.598Z,7.60
2022-09-06T15:10:58.575Z,8.50
2022-09-06T15:13:50.126Z,7.17
2022-09-06T15:16:42.211Z,6.37
2022-09-06T15:19:36.623Z,8.67
2022-09-06T15:22:29.548Z,8.23
2022-09-06T15:25:22.454Z,7.63
2022-09-06T15:28:15.603Z,10.17
2022-09-06T15:31:08.572Z,8.20
2022-09-06T15:34:02.994Z,9.70
2022-09-06T15:36:56.821Z,9.27
2022-09-06T15:39:48.925Z,8.23
2022-09-06T15:42:41.493Z,7.23
2022-09-06T15:45:35.954Z,7.43
2022-09-06T15:48:29.952Z,9.37
2022-09-06T15:51:22.959Z,7.50
2022-09-06T15:54:16.831Z,10.43
2022-09-06T15:57:10.691Z,7.97
2022-09-06T16:00:03.450Z,8.03
2022-09-06T16:02:58.410Z,7.63
2022-09-06T16:09:06.120Z,8.57
2022-09-06T16:11:58.595Z,7.90
2022-09-06T16:14:51.238Z,7.65
2022-09-06T16:17:43.477Z,8.30
2022-09-06T16:20:39.965Z,9.55
2022-09-06T16:23:32.711Z,7.83
2022-09-06T16:26:26.405Z,10.80
2022-09-06T16:29:20.445Z,10.20
2022-09-06T16:32:12.285Z,10.23
2022-09-06T16:35:06.176Z,12.60
2022-09-06T16:37:58.355Z,9.70
2022-09-06T16:40:51.202Z,8.63
2022-09-06T16:43:44.005Z,10.80
2022-09-06T16:46:36.291Z,8.47
2022-09-06T16:49:29.169Z,18.03
2022-09-06T16:52:21.447Z,10.03
2022-09-06T16:55:13.549Z,13.77
2022-09-06T16:58:05.646Z,15.10
2022-09-06T17:00:58.397Z,10.23
2022-09-06T17:03:51.616Z,13.73
2022-09-06T17:06:45.961Z,9.67
2022-09-06T17:09:38.691Z,14.90
2022-09-06T17:12:32.896Z,33.90
2022-09-06T17:15:24.899Z,24.93
2022-09-06T17:18:17.562Z,25.77
2022-09-06T17:21:10.397Z,15.10
2022-09-06T17:24:03.215Z,12.13
2022-09-06T17:26:56.190Z,13.07
2022-09-06T17:29:48.652Z,14.37
2022-09-06T17:32:40.686Z,14.97
2022-09-06T17:35:33.971Z,14.13
2022-09-06T17:38:26.387Z,12.67
2022-09-06T17:41:22.678Z,13.57
2022-09-06T17:44:17.037Z,18.03
2022-09-06T17:47:14.085Z,13.90
2022-09-06T17:50:07.940Z,13.83
2022-09-06T17:53:00.535Z,13.07
2022-09-06T17:55:53.220Z,16.60
2022-09-06T17:58:46.218Z,15.67
2022-09-06T18:01:41.435Z,23.97
2022-09-06T18:04:34.519Z,13.70
2022-09-06T18:07:26.903Z,13.80
2022-09-06T18:10:20.171Z,13.77
2022-09-06T18:13:12.391Z,16.90
2022-09-06T18:16:05.268Z,16.10
2022-09-06T18:18:59.409Z,13.93
2022-09-06T18:21:52.065Z,13.43
2022-09-06T18:24:44.499Z,13.97
2022-09-06T18:27:37.666Z,14.30
2022-09-06T18:30:31.543Z,12.30
2022-09-06T18:33:25.781Z,16.70
2022-09-06T18:36:19.702Z,17.07
2022-09-06T18:39:13.509Z,15.23
2022-09-06T18:42:11.185Z,20.27
2022-09-06T18:45:03.876Z,14.93
2022-09-06T18:47:57.383Z,13.70
2022-09-06T18:50:49.724Z,14.65
2022-09-06T18:53:44.793Z,16.17
2022-09-06T18:56:37.130Z,13.23
2022-09-06T18:59:29.976Z,15.47
2022-09-06T19:02:23.727Z,14.60
2022-09-06T19:05:15.677Z,15.47
2022-09-06T19:08:08.851Z,14.13
2022-09-06T19:11:07.784Z,18.93
2022-09-06T19:14:00.687Z,13.93
2022-09-06T19:16:54.315Z,14.70
2022-09-06T19:19:46.281Z,13.40
2022-09-06T19:25:29.783Z,14.17
2022-09-06T19:28:21.763Z,13.60
2022-09-06T19:31:15.937Z,15.43
2022-09-06T19:34:07.992Z,13.93
2022-09-06T19:37:00.374Z,13.00
2022-09-06T19:39:52.807Z,19.40
2022-09-06T19:42:44.881Z,10.67
2022-09-06T19:45:41.366Z,11.70
2022-09-06T19:48:34.021Z,11.50
2022-09-06T19:51:27.337Z,11.20
2022-09-06T19:54:20.508Z,12.53
2022-09-06T19:57:13.345Z,14.27
2022-09-06T20:00:07.801Z,13.67
2022-09-06T20:03:06.517Z,12.53
2022-09-06T20:06:02.824Z,11.13
2022-09-06T20:08:56.836Z,11.33
2022-09-06T20:11:49.948Z,13.13
2022-09-06T20:14:42.397Z,14.83
2022-09-06T20:17:34.657Z,17.20
2022-09-06T20:20:27.419Z,13.10
2022-09-06T20:23:19.657Z,13.23
2022-09-06T20:26:13.765Z,11.73
2022-09-06T20:29:06.976Z,12.53
2022-09-06T20:31:58.791Z,13.83
2022-09-06T20:34:51.064Z,12.70
2022-09-06T20:37:43.330Z,12.83
2022-09-06T20:43:26.635Z,17.50
2022-09-06T20:46:21.552Z,15.10
2022-09-06T20:49:15.981Z,13.33
2022-09-06T20:52:08.186Z,12.37
2022-09-06T20:57:51.765Z,15.53
2022-09-06T21:00:44.368Z,13.47
2022-09-06T21:03:40.763Z,11.30
2022-09-06T21:06:35.770Z,14.10
2022-09-06T21:09:28.891Z,12.20
2022-09-06T21:12:20.932Z,16.00
2022-09-06T21:18:04.923Z,13.83
2022-09-06T21:21:02.017Z,11.00
2022-09-06T21:23:55.728Z,11.97
2022-09-06T21:26:48.324Z,12.10
2022-09-06T21:29:42.613Z,11.23
2022-09-06T21:32:35.400Z,12.37
2022-09-06T21:35:27.740Z,12.90
2022-09-06T21:41:14.893Z,11.70
2022-09-06T21:44:09.263Z,13.43
2022-09-06T21:47:01.783Z,12.23
2022-09-06T21:49:54.523Z,14.10
2022-09-06T21:52:47.260Z,15.57
2022-09-06T21:55:39.371Z,12.53
2022-09-06T21:58:32.789Z,12.63
2022-09-06T22:01:26.071Z,10.83
2022-09-06T22:04:19.731Z,13.47
2022-09-06T22:07:11.533Z,13.00
2022-09-06T22:10:03.955Z,15.93
2022-09-06T22:12:56.924Z,15.10
2022-09-06T22:15:49.492Z,13.37
2022-09-06T22:18:43.262Z,13.50
2022-09-06T22:21:36.139Z,16.73
2022-09-06T22:24:28.537Z,12.00
2022-09-06T22:27:20.142Z,13.08
2022-09-06T22:30:14.936Z,12.70
2022-09-06T22:33:07.647Z,14.53
2022-09-06T22:36:00.779Z,18.97
2022-09-06T22:38:57.835Z,15.90
2022-09-06T22:41:50.777Z,15.17
2022-09-06T22:47:34.664Z,14.07
2022-09-06T22:50:27.571Z,13.00
2022-09-06T22:53:21.612Z,16.20
2022-09-06T22:56:13.732Z,16.20
2022-09-06T22:59:06.728Z,14.65
2022-09-06T23:01:59.162Z,13.13
2022-09-06T23:04:51.961Z,12.47
2022-09-06T23:10:40.371Z,17.73
2022-09-06T23:13:32.511Z,15.33
2022-09-06T23:16:25.851Z,14.15
2022-09-06T23:19:18.816Z,16.23
2022-09-06T23:22:11.857Z,11.57
2022-09-06T23:25:04.225Z,13.60
2022-09-06T23:27:57.135Z,13.43
2022-09-06T23:33:40.559Z,13.23
2022-09-06T23:36:33.268Z,16.00
2022-09-06T23:39:26.197Z,14.80
2022-09-06T23:42:19.284Z,15.23
2022-09-06T23:45:13.364Z,12.90
2022-09-06T23:48:06.728Z,14.20
2022-09-06T23:50:59.362Z,15.53
2022-09-06T23:53:51.628Z,14.50
2022-09-06T23:56:43.880Z,13.20
